createdAt,value
2018-12-03T00:00:14.880Z,44.35
2018-12-03T00:01:15.262Z,45.06
2018-12-03T00:02:14.852Z,45.06
2018-12-03T00:03:14.838Z,45.16
2018-12-03T00:04:14.829Z,45.06
2018-12-03T00:05:14.815Z,44.66
2018-12-03T00:06:14.803Z,44.56
2018-12-03T00:07:14.805Z,45.76
2018-12-03T00:08:14.781Z,44.66
2018-12-03T00:09:14.770Z,44.76
2018-12-03T00:10:14.758Z,44.66
2018-12-03T00:11:14.759Z,44.56
2018-12-03T00:12:14.742Z,45.56
2018-12-03T00:13:14.731Z,45.76
2018-12-03T00:14:14.714Z,45.76
2018-12-03T00:15:14.704Z,45.26
2018-12-03T00:16:14.693Z,44.66
2018-12-03T00:17:14.692Z,44.46
2018-12-03T00:18:14.678Z,45.36
2018-12-03T00:19:14.660Z,45.16
2018-12-03T00:20:14.653Z,45.16
2018-12-03T00:21:14.637Z,45.36
2018-12-03T00:22:14.626Z,45.16
2018-12-03T00:23:14.627Z,45.36
2018-12-03T00:24:14.605Z,45.28
2018-12-03T00:25:14.596Z,45.58
2018-12-03T00:26:14.582Z,45.26
2018-12-03T00:27:14.575Z,45.08
2018-12-03T00:28:14.583Z,45.38
2018-12-03T00:29:14.551Z,45.46
2018-12-03T00:30:14.550Z,45.26
2018-12-03T00:31:14.555Z,45.08
2018-12-03T00:32:14.523Z,45.28
2018-12-03T00:33:14.505Z,45.36
2018-12-03T00:34:14.499Z,45.46
2018-12-03T00:35:14.489Z,45.58
2018-12-03T00:36:14.474Z,45.38
2018-12-03T00:37:14.461Z,45.16
2018-12-03T00:38:14.450Z,45.36
2018-12-03T00:39:14.450Z,45.38
2018-12-03T00:40:14.427Z,45.18
2018-12-03T00:41:14.416Z,45.38
2018-12-03T00:42:14.408Z,45.28
2018-12-03T00:43:14.409Z,45.38
2018-12-03T00:44:14.392Z,45.36
2018-12-03T00:45:14.377Z,44.98
2018-12-03T00:46:14.370Z,45.26
2018-12-03T00:47:14.352Z,45.36
2018-12-03T00:48:14.340Z,45.38
2018-12-03T00:49:14.328Z,45.28
2018-12-03T00:50:14.324Z,45.38
2018-12-03T00:51:14.311Z,45.46
2018-12-03T00:52:14.295Z,45.28
2018-12-03T00:53:14.301Z,45.08
2018-12-03T00:54:14.280Z,45.38
2018-12-03T00:55:14.272Z,45.18
2018-12-03T00:56:14.253Z,45.18
2018-12-03T00:57:14.250Z,44.96
2018-12-03T00:58:14.231Z,44.98
2018-12-03T00:59:14.219Z,45.28
2018-12-03T01:00:14.214Z,45.28
2018-12-03T01:01:14.263Z,45.38
2018-12-03T01:02:14.226Z,45.08
2018-12-03T01:03:14.189Z,45.38
2018-12-03T01:04:14.164Z,45.38
2018-12-03T01:05:14.151Z,45.38
2018-12-03T01:06:14.146Z,45.48
2018-12-03T01:07:14.128Z,45.28
2018-12-03T01:08:14.122Z,45.48
2018-12-03T01:09:14.124Z,45.26
2018-12-03T01:10:14.097Z,45.18
2018-12-03T01:11:14.147Z,45.38
2018-12-03T01:12:14.076Z,45.38
2018-12-03T01:13:14.064Z,44.58
2018-12-03T01:14:14.061Z,45.38
2018-12-03T01:15:14.041Z,45.36
2018-12-03T01:16:14.066Z,45.18
2018-12-03T01:17:14.026Z,44.68
2018-12-03T01:18:14.007Z,45.78
2018-12-03T01:19:14.018Z,45.18
2018-12-03T01:20:13.987Z,45.38
2018-12-03T01:21:13.975Z,45.78
2018-12-03T01:22:13.980Z,44.58
2018-12-03T01:23:13.953Z,45.58
2018-12-03T01:24:13.942Z,44.78
2018-12-03T01:25:13.946Z,44.48
2018-12-03T01:26:13.923Z,44.58
2018-12-03T01:27:13.913Z,44.78
2018-12-03T01:28:13.903Z,45.18
2018-12-03T01:29:13.886Z,44.68
2018-12-03T01:30:13.875Z,44.68
2018-12-03T01:31:13.864Z,45.08
2018-12-03T01:32:13.867Z,45.18
2018-12-03T01:33:13.848Z,44.78
2018-12-03T01:34:13.834Z,44.78
2018-12-03T01:35:13.823Z,44.98
2018-12-03T01:36:13.813Z,45.28
2018-12-03T01:37:13.800Z,44.98
2018-12-03T01:38:13.797Z,44.78
2018-12-03T01:39:13.783Z,44.88
2018-12-03T01:40:13.775Z,44.78
2018-12-03T01:41:13.755Z,44.78
2018-12-03T01:42:13.747Z,44.78
2018-12-03T01:43:13.731Z,44.88
2018-12-03T01:44:13.726Z,44.78
2018-12-03T01:45:13.714Z,44.48
2018-12-03T01:46:13.699Z,44.78
2018-12-03T01:47:13.690Z,44.68
2018-12-03T01:48:13.683Z,44.78
2018-12-03T01:49:13.696Z,44.78
2018-12-03T01:50:13.668Z,44.98
2018-12-03T01:51:13.645Z,44.78
2018-12-03T01:52:13.635Z,45.08
2018-12-03T01:53:13.628Z,44.88
2018-12-03T01:54:13.620Z,45.08
2018-12-03T01:55:13.604Z,44.88
2018-12-03T01:56:13.590Z,44.58
2018-12-03T01:57:13.577Z,45.18
2018-12-03T01:58:13.567Z,44.88
2018-12-03T01:59:13.558Z,44.68
2018-12-03T02:00:13.551Z,44.88
2018-12-03T02:01:13.532Z,44.88
2018-12-03T02:02:13.528Z,44.78
2018-12-03T02:03:13.511Z,44.58
2018-12-03T02:04:13.500Z,44.78
2018-12-03T02:05:13.498Z,44.78
2018-12-03T02:06:13.477Z,44.86
2018-12-03T02:07:13.471Z,44.78
2018-12-03T02:08:13.454Z,44.58
2018-12-03T02:09:13.443Z,44.48
2018-12-03T02:10:13.447Z,44.98
2018-12-03T02:11:13.427Z,44.88
2018-12-03T02:12:13.417Z,44.78
2018-12-03T02:13:13.399Z,44.88
2018-12-03T02:14:13.391Z,44.68
2018-12-03T02:15:13.383Z,44.86
2018-12-03T02:16:13.370Z,44.88
2018-12-03T02:17:13.354Z,44.78
2018-12-03T02:18:13.344Z,45.08
2018-12-03T02:19:13.337Z,44.48
2018-12-03T02:20:13.325Z,44.88
2018-12-03T02:21:13.322Z,44.78
2018-12-03T02:22:13.304Z,44.68
2018-12-03T02:23:13.346Z,44.78
2018-12-03T02:24:13.282Z,44.78
2018-12-03T02:25:13.273Z,44.88
2018-12-03T02:26:13.256Z,44.78
2018-12-03T02:27:13.249Z,44.78
2018-12-03T02:28:13.241Z,44.78
2018-12-03T02:29:13.283Z,45.08
2018-12-03T02:30:13.215Z,44.98
2018-12-03T02:31:13.203Z,44.88
2018-12-03T02:32:13.203Z,44.78
2018-12-03T02:33:13.182Z,44.98
2018-12-03T02:34:13.169Z,45.08
2018-12-03T02:35:13.156Z,44.88
2018-12-03T02:36:13.158Z,45.08
2018-12-03T02:37:13.144Z,44.98
2018-12-03T02:38:13.124Z,44.68
2018-12-03T02:39:13.112Z,44.78
2018-12-03T02:40:13.104Z,44.78
2018-12-03T02:41:13.095Z,44.78
2018-12-03T02:42:13.084Z,44.58
2018-12-03T02:43:13.077Z,44.78
2018-12-03T02:44:13.065Z,44.78
2018-12-03T02:45:13.049Z,44.58
2018-12-03T02:46:13.035Z,44.98
2018-12-03T02:47:13.029Z,44.68
2018-12-03T02:48:13.287Z,44.78
2018-12-03T02:49:13.005Z,44.88
2018-12-03T02:50:12.994Z,44.88
2018-12-03T02:51:12.987Z,44.78
2018-12-03T02:52:12.967Z,44.78
2018-12-03T02:53:12.963Z,44.78
2018-12-03T02:54:12.957Z,44.88
2018-12-03T02:55:12.938Z,44.48
2018-12-03T02:56:12.924Z,44.88
2018-12-03T02:57:12.928Z,44.78
2018-12-03T02:58:12.901Z,44.78
2018-12-03T02:59:12.908Z,44.58
2018-12-03T03:00:12.893Z,44.78
2018-12-03T03:01:12.873Z,44.98
2018-12-03T03:02:12.861Z,45.08
2018-12-03T03:03:12.848Z,44.88
2018-12-03T03:04:12.842Z,44.78
2018-12-03T03:05:12.827Z,44.68
2018-12-03T03:06:12.814Z,44.68
2018-12-03T03:07:12.806Z,44.68
2018-12-03T03:08:12.802Z,44.58
2018-12-03T03:09:12.823Z,44.48
2018-12-03T03:10:12.771Z,45.18
2018-12-03T03:11:12.757Z,45.28
2018-12-03T03:12:12.746Z,44.58
2018-12-03T03:13:12.790Z,45.28
2018-12-03T03:14:12.727Z,45.58
2018-12-03T03:15:12.722Z,44.78
2018-12-03T03:16:12.710Z,44.58
2018-12-03T03:17:12.694Z,45.68
2018-12-03T03:18:12.687Z,45.28
2018-12-03T03:19:12.672Z,45.58
2018-12-03T03:20:12.698Z,44.88
2018-12-03T03:21:12.647Z,44.88
2018-12-03T03:22:12.637Z,45.68
2018-12-03T03:23:12.627Z,45.48
2018-12-03T03:24:12.620Z,45.78
2018-12-03T03:25:12.603Z,45.48
2018-12-03T03:26:12.601Z,45.38
2018-12-03T03:27:12.584Z,45.38
2018-12-03T03:28:12.570Z,45.48
2018-12-03T03:29:12.559Z,45.58
2018-12-03T03:30:12.549Z,45.48
2018-12-03T03:31:12.575Z,45.28
2018-12-03T03:32:12.527Z,45.28
2018-12-03T03:33:12.523Z,45.38
2018-12-03T03:34:12.504Z,45.48
2018-12-03T03:35:12.502Z,45.28
2018-12-03T03:36:12.484Z,45.18
2018-12-03T03:37:12.483Z,45.48
2018-12-03T03:38:12.462Z,45.48
2018-12-03T03:39:12.455Z,45.28
2018-12-03T03:40:12.449Z,45.28
2018-12-03T03:41:12.430Z,45.48
2018-12-03T03:42:12.443Z,45.18
2018-12-03T03:43:12.407Z,45.48
2018-12-03T03:44:12.404Z,45.18
2018-12-03T03:45:12.386Z,45.18
2018-12-03T03:46:12.373Z,45.38
2018-12-03T03:47:12.360Z,45.38
2018-12-03T03:48:12.364Z,45.18
2018-12-03T03:49:12.338Z,45.28
2018-12-03T03:50:12.329Z,45.38
2018-12-03T03:51:12.318Z,45.30
2018-12-03T03:52:12.309Z,45.00
2018-12-03T03:53:12.302Z,44.88
2018-12-03T03:54:12.282Z,44.68
2018-12-03T03:55:12.280Z,45.00
2018-12-03T03:56:12.264Z,45.20
2018-12-03T03:57:12.252Z,45.10
2018-12-03T03:58:12.249Z,45.10
2018-12-03T03:59:12.234Z,44.88
2018-12-03T04:00:12.217Z,44.98
2018-12-03T04:01:12.219Z,45.00
2018-12-03T04:02:12.194Z,45.18
2018-12-03T04:03:12.183Z,44.90
2018-12-03T04:04:12.182Z,45.08
2018-12-03T04:05:12.165Z,44.90
2018-12-03T04:06:12.154Z,44.98
2018-12-03T04:07:12.144Z,44.90
2018-12-03T04:08:12.129Z,45.00
2018-12-03T04:09:12.134Z,45.00
2018-12-03T04:10:12.108Z,44.80
2018-12-03T04:11:12.099Z,44.98
2018-12-03T04:12:12.088Z,45.38
2018-12-03T04:13:12.077Z,45.28
2018-12-03T04:14:12.066Z,45.28
2018-12-03T04:15:12.073Z,44.90
2018-12-03T04:16:12.055Z,45.30
2018-12-03T04:17:12.038Z,45.00
2018-12-03T04:18:12.040Z,44.98
2018-12-03T04:19:12.012Z,45.10
2018-12-03T04:20:12.017Z,45.30
2018-12-03T04:21:11.992Z,45.60
2018-12-03T04:22:11.974Z,45.20
2018-12-03T04:23:11.965Z,45.50
2018-12-03T04:24:11.954Z,45.40
2018-12-03T04:25:11.940Z,45.40
2018-12-03T04:26:11.943Z,45.90
2018-12-03T04:27:11.919Z,45.50
2018-12-03T04:28:11.913Z,45.90
2018-12-03T04:29:11.905Z,46.00
2018-12-03T04:30:11.901Z,45.70
2018-12-03T04:31:11.882Z,45.80
2018-12-03T04:32:11.865Z,46.00
2018-12-03T04:33:11.851Z,46.00
2018-12-03T04:34:11.850Z,45.80
2018-12-03T04:35:11.831Z,45.90
2018-12-03T04:36:11.829Z,46.11
2018-12-03T04:37:11.808Z,45.80
2018-12-03T04:38:11.798Z,46.00
2018-12-03T04:39:11.792Z,45.90
2018-12-03T04:40:11.783Z,46.11
2018-12-03T04:41:11.780Z,45.90
2018-12-03T04:42:11.753Z,45.90
2018-12-03T04:43:11.759Z,46.00
2018-12-03T04:44:11.731Z,45.90
2018-12-03T04:45:11.724Z,45.90
2018-12-03T04:46:11.721Z,45.72
2018-12-03T04:47:11.707Z,46.00
2018-12-03T04:48:11.687Z,46.00
2018-12-03T04:49:11.699Z,45.90
2018-12-03T04:50:11.738Z,45.80
2018-12-03T04:51:11.655Z,45.70
2018-12-03T04:52:11.666Z,45.90
2018-12-03T04:53:11.643Z,45.80
2018-12-03T04:54:11.621Z,45.70
2018-12-03T04:55:11.621Z,46.00
2018-12-03T04:56:11.598Z,45.92
2018-12-03T04:57:11.598Z,46.11
2018-12-03T04:58:11.576Z,46.00
2018-12-03T04:59:11.567Z,46.20
2018-12-03T05:00:11.633Z,45.80
2018-12-03T05:01:11.549Z,46.11
2018-12-03T05:02:11.532Z,46.23
2018-12-03T05:03:11.527Z,46.20
2018-12-03T05:04:11.509Z,46.11
2018-12-03T05:05:11.500Z,46.00
2018-12-03T05:06:11.489Z,46.20
2018-12-03T05:07:11.482Z,45.80
2018-12-03T05:08:11.480Z,46.11
2018-12-03T05:09:11.456Z,46.00
2018-12-03T05:10:11.454Z,46.11
2018-12-03T05:11:11.433Z,46.23
2018-12-03T05:12:11.422Z,45.60
2018-12-03T05:13:11.409Z,45.70
2018-12-03T05:14:11.408Z,45.70
2018-12-03T05:15:11.388Z,45.90
2018-12-03T05:16:11.380Z,45.70
2018-12-03T05:17:11.373Z,46.00
2018-12-03T05:18:11.358Z,45.70
2018-12-03T05:19:11.357Z,45.80
2018-12-03T05:20:11.340Z,45.70
2018-12-03T05:21:11.325Z,45.90
2018-12-03T05:22:11.312Z,45.90
2018-12-03T05:23:11.308Z,46.03
2018-12-03T05:24:11.295Z,45.92
2018-12-03T05:25:11.289Z,45.83
2018-12-03T05:26:11.268Z,46.00
2018-12-03T05:27:11.256Z,45.72
2018-12-03T05:28:11.243Z,45.83
2018-12-03T05:29:11.231Z,45.80
2018-12-03T05:30:11.256Z,46.00
2018-12-03T05:31:11.211Z,46.00
2018-12-03T05:32:11.203Z,45.80
2018-12-03T05:33:11.190Z,46.20
2018-12-03T05:34:11.182Z,46.20
2018-12-03T05:35:11.170Z,45.80
2018-12-03T05:36:11.160Z,46.20
2018-12-03T05:37:11.145Z,45.90
2018-12-03T05:38:11.144Z,46.11
2018-12-03T05:39:11.124Z,46.11
2018-12-03T05:40:11.119Z,46.11
2018-12-03T05:41:11.108Z,45.90
2018-12-03T05:42:11.092Z,45.90
2018-12-03T05:43:11.081Z,46.30
2018-12-03T05:44:11.068Z,46.30
2018-12-03T05:45:11.054Z,46.00
2018-12-03T05:46:11.045Z,46.11
2018-12-03T05:47:11.039Z,46.11
2018-12-03T05:48:11.025Z,46.00
2018-12-03T05:49:11.013Z,46.30
2018-12-03T05:50:11.006Z,46.30
2018-12-03T05:51:10.994Z,46.08
2018-12-03T05:52:10.985Z,46.18
2018-12-03T05:53:10.969Z,46.38
2018-12-03T05:54:10.955Z,46.18
2018-12-03T05:55:10.947Z,46.28
2018-12-03T05:56:10.937Z,46.18
2018-12-03T05:57:10.926Z,46.38
2018-12-03T05:58:10.968Z,46.58
2018-12-03T05:59:10.903Z,46.38
2018-12-03T06:00:10.891Z,46.38
2018-12-03T06:01:10.878Z,46.38
2018-12-03T06:02:10.876Z,46.08
2018-12-03T06:03:10.887Z,46.28
2018-12-03T06:04:10.847Z,46.38
2018-12-03T06:05:10.834Z,46.28
2018-12-03T06:06:10.823Z,46.18
2018-12-03T06:07:10.828Z,46.38
2018-12-03T06:08:10.805Z,46.46
2018-12-03T06:09:10.808Z,46.18
2018-12-03T06:10:10.781Z,46.18
2018-12-03T06:11:10.769Z,46.18
2018-12-03T06:12:10.756Z,45.78
2018-12-03T06:13:10.746Z,45.78
2018-12-03T06:14:10.739Z,46.08
2018-12-03T06:15:10.737Z,46.28
2018-12-03T06:16:10.712Z,46.18
2018-12-03T06:17:10.704Z,46.08
2018-12-03T06:18:10.691Z,46.18
2018-12-03T06:19:10.690Z,46.38
2018-12-03T06:20:10.669Z,45.76
2018-12-03T06:21:10.665Z,46.16
2018-12-03T06:22:10.648Z,46.36
2018-12-03T06:23:10.643Z,46.26
2018-12-03T06:24:10.635Z,46.06
2018-12-03T06:25:10.613Z,46.36
2018-12-03T06:26:10.604Z,46.16
2018-12-03T06:27:10.596Z,46.16
2018-12-03T06:28:10.581Z,46.26
2018-12-03T06:29:10.572Z,46.16
2018-12-03T06:30:10.564Z,46.56
2018-12-03T06:31:10.557Z,46.26
2018-12-03T06:32:11.275Z,46.36
2018-12-03T06:33:10.526Z,46.26
2018-12-03T06:34:10.514Z,46.06
2018-12-03T06:35:10.529Z,46.16
2018-12-03T06:36:10.494Z,46.46
2018-12-03T06:37:10.480Z,46.46
2018-12-03T06:38:15.320Z,46.26
2018-12-03T06:39:11.462Z,46.46
2018-12-03T06:40:10.455Z,46.06
2018-12-03T06:41:10.444Z,46.14
2018-12-03T06:42:10.433Z,46.16
2018-12-03T06:43:10.418Z,46.16
2018-12-03T06:44:10.409Z,46.36
2018-12-03T06:45:10.399Z,45.94
2018-12-03T06:46:10.421Z,45.96
2018-12-03T06:47:10.372Z,46.04
2018-12-03T06:48:10.375Z,46.14
2018-12-03T06:49:10.356Z,46.44
2018-12-03T06:50:10.338Z,45.94
2018-12-03T06:51:10.330Z,46.44
2018-12-03T06:52:10.321Z,46.46
